• Join FlightAware (Why Join?)
  • Login
  • US Flag 
04:35AM EDT


 

Airport Tracker/Info


-or-


 

Live Flight TrackerFlight Track Log ✈ SWA1802 ✈ 20-Apr-2013 ✈ KALB - KMCO

Flight Track Log - Related Links

Times and Time Zones

All times are in EDT time to prevent confusion due to time zone crossing. See the SWA1802 flight status page for this flight to view local times or setup timezone preferences in your user account.

Time Position Orientation Groundspeed Altitude Reporting Facility
EDT Latitude Longitude Course Direction KTS MPH feet Rate Location/Type
06:50AM 42.7653 -73.8061 359° North 163 188 1,300  Level Boston Center
06:51AM 42.7778 -73.8064 359° North 165 190 2,000 2,280 Climbing Boston Center
06:53AM 42.8539 -73.8958 319° Northwest 208 239 6,200 2,640 Climbing Boston Center
06:54AM 42.8589 -73.9808 275° West 218 251 9,500 2,580 Climbing Boston Center
06:55AM 42.8511 -74.0856 264° West 238 274 11,400 2,100 Climbing Boston Center
06:56AM 42.8453 -74.1931 266° West 291 335 13,800 2,700 Climbing Boston Center
06:57AM 42.7836 -74.2706 223° Southwest 286 329 16,800 2,700 Climbing Boston Center
06:58AM 42.6950 -74.2197 157° South 259 298 19,300 2,400 Climbing Boston Center
06:59AM 42.6086 -74.1439 147° Southeast 315 362 21,600 1,800 Climbing Boston Center
07:00AM 42.5344 -74.0714 144° Southeast 336 387 23,000 1,560 Climbing Boston Center
07:01AM 42.4419 -73.9875 146° Southeast 375 432 24,800 1,800 Climbing Boston Center
07:02AM 42.3492 -73.9067 147° Southeast 389 448 26,600 1,560 Climbing Boston Center
07:03AM 42.2586 -73.8286 147° Southeast 395 455 28,000 660 Climbing Boston Center
07:04AM 42.1608 -73.8153 174° South 368 423 28,000  Level Boston Center
07:05AM 42.0664 -73.8497 195° South 341 392 28,000 720 Level Boston Center
07:06AM 41.9086 -73.9233 199° South 337 388 30,100 1,320 Climbing New York Center
07:07AM 41.8222 -73.9608 198° South 337 388 31,700 1,440 Climbing New York Center
07:08AM 41.7381 -74.0014 200° South 331 381 33,000 1,140 Climbing New York Center
07:09AM 41.6514 -74.0414 199° South 331 381 34,100 1,020 Climbing New York Center
07:10AM 41.5692 -74.0817 200° South 331 381 35,100 900 Climbing New York Center
07:11AM 41.4869 -74.1192 199° South 326 375 36,000 420 Climbing New York Center
07:12AM 41.4044 -74.1594 200° South 326 375 36,000  Level New York Center
07:13AM 41.3181 -74.1992 199° South 326 375 36,000  Level New York Center
07:14AM 41.2294 -74.2361 197° South 332 382 36,000  Level New York Center
07:15AM 41.1469 -74.2758 200° South 332 382 36,000  Level New York Center
07:16AM 41.0606 -74.3153 199° South 332 382 36,000  Level New York Center
07:17AM 40.9758 -74.3550 199° South 332 382 36,000  Level New York Center
07:18AM 40.8914 -74.3944 199° South 332 382 36,000  Level New York Center
07:19AM 40.8069 -74.4339 199° South 332 382 36,000  Level New York Center
07:20AM 40.7222 -74.4731 199° South 332 382 36,000  Level New York Center
07:22AM 40.5506 -74.5514 199° South 327 376 36,000  Level Washington Center
07:23AM 40.4656 -74.5908 199° South 327 376 36,000  Level Washington Center
07:24AM 40.3783 -74.6303 199° South 327 376 36,000  Level Washington Center
07:25AM 40.2892 -74.6697 199° South 327 376 36,000  Level Washington Center
07:26AM 40.2019 -74.7086 199° South 327 376 36,000  Level Washington Center
07:27AM 40.1147 -74.7506 200° South 327 376 36,000  Level Washington Center
07:28AM 40.0294 -74.7867 198° South 327 376 36,000  Level Washington Center
07:29AM 39.9422 -74.8283 200° South 327 376 36,000  Level Washington Center
07:30AM 39.8572 -74.8672 199° South 327 376 36,000  Level Washington Center
07:31AM 39.7700 -74.9031 198° South 327 376 36,000  Level Washington Center
07:32AM 39.6825 -74.9444 200° South 327 376 36,000  Level Washington Center
07:33AM 39.6058 -74.9800 200° South 332 382 36,000  Level Washington Center
07:34AM 39.5206 -75.0292 204° Southwest 332 382 36,000  Level Washington Center
07:35AM 39.4394 -75.0811 206° Southwest 332 382 36,000  Level Washington Center
07:36AM 39.3564 -75.1300 204° Southwest 332 382 36,000  Level Washington Center
07:37AM 39.2731 -75.1786 204° Southwest 337 388 36,000  Level Washington Center
07:38AM 39.1878 -75.2275 204° Southwest 337 388 36,000  Level Washington Center
07:39AM 39.1047 -75.2786 206° Southwest 337 388 36,000  Level Washington Center
07:40AM 39.0214 -75.3244 203° Southwest 337 388 36,000  Level Washington Center
07:41AM 38.9381 -75.3756 206° Southwest 337 388 36,000  Level Washington Center
07:42AM 38.8547 -75.4236 204° Southwest 337 388 36,000  Level Washington Center
07:43AM 38.7694 -75.4692 203° Southwest 337 388 36,000  Level Washington Center
07:44AM 38.6861 -75.5200 205° Southwest 337 388 36,000  Level Washington Center
07:45AM 38.6028 -75.5706 205° Southwest 337 388 36,000  Level Washington Center
07:46AM 38.5172 -75.6156 202° Southwest 337 388 36,000  Level Washington Center
07:47AM 38.4317 -75.6658 205° Southwest 337 388 36,000  Level Washington Center
07:48AM 38.3461 -75.7133 204° Southwest 337 388 36,000  Level Washington Center
07:49AM 38.2522 -75.7664 204° Southwest 337 388 36,000  Level Washington Center
07:50AM 38.1667 -75.8161 205° Southwest 337 388 36,000  Level Washington Center
07:51AM 38.0831 -75.8633 204° Southwest 337 388 36,000  Level Washington Center
07:52AM 37.9975 -75.9106 204° Southwest 337 388 36,000  Level Washington Center
07:53AM 37.9119 -75.9603 205° Southwest 337 388 36,000  Level Washington Center
07:54AM 37.8242 -76.0097 204° Southwest 337 388 36,000  Level Washington Center
07:55AM 37.7383 -76.0619 206° Southwest 337 388 36,000  Level Washington Center
07:56AM 37.6486 -76.1139 205° Southwest 342 394 36,000  Level Washington Center
07:57AM 37.5817 -76.1525 205° Southwest 342 394 36,000  Level Washington Center
07:58AM 37.4814 -76.1989 200° South 342 394 36,000  Level Washington Center
07:59AM 37.3933 -76.2506 205° Southwest 342 394 36,000  Level Washington Center
08:00AM 37.3033 -76.2994 203° Southwest 347 399 36,000  Level Washington Center
08:01AM 37.2156 -76.3508 205° Southwest 347 399 36,000  Level Washington Center
08:02AM 37.1256 -76.3994 203° Southwest 347 399 36,000  Level Washington Center
08:03AM 37.0314 -76.4375 198° South 358 412 36,000  Level Washington Center
08:04AM 36.9372 -76.4781 199° South 358 412 36,000  Level Washington Center
08:05AM 36.8453 -76.5158 198° South 358 412 36,000  Level Washington Center
08:06AM 36.7508 -76.5536 198° South 358 412 36,000  Level Washington Center
08:07AM 36.6506 -76.6017 201° Southwest 358 412 36,000  Level Washington Center
08:08AM 36.5647 -76.6342 197° South 358 412 36,000  Level Washington Center
08:09AM 36.4683 -76.6767 200° South 364 419 36,000  Level Washington Center
08:10AM 36.3719 -76.7142 197° South 364 419 36,000  Level Washington Center
08:11AM 36.2778 -76.7539 199° South 364 419 36,000  Level Washington Center
08:12AM 36.1814 -76.7911 197° South 364 419 36,000  Level Washington Center
08:13AM 36.0828 -76.8308 198° South 369 425 36,000  Level Washington Center
08:14AM 35.9864 -76.8703 198° South 369 425 36,000  Level Washington Center
08:15AM 35.8881 -76.9097 198° South 369 425 36,000  Level Washington Center
08:16AM 35.7936 -76.9492 199° South 369 425 36,000  Level Washington Center
08:17AM 35.6953 -76.9886 198° South 369 425 36,000  Level Washington Center
08:18AM 35.5967 -77.0275 198° South 369 425 36,000  Level Washington Center
08:19AM 35.5000 -77.0692 199° South 369 425 36,000  Level Washington Center
08:20AM 35.3911 -77.1106 197° South 369 425 36,000  Level Washington Center
08:21AM 35.2925 -77.1519 199° South 369 425 36,000  Level Washington Center
08:22AM 35.1939 -77.1908 198° South 369 425 36,000  Level Washington Center
08:23AM 35.0975 -77.2319 199° South 369 425 36,000  Level Washington Center
08:24AM 34.9967 -77.2706 197° South 375 432 36,000  Level Washington Center
08:25AM 34.8961 -77.3089 197° South 375 432 36,000  Level Washington Center
08:26AM 34.7972 -77.3525 200° South 375 432 36,000 180 Level Washington Center
08:27AM 34.6967 -77.3906 197° South 380 437 36,400 780 Climbing Washington Center
08:28AM 34.5981 -77.4289 198° South 380 437 37,600 780 Climbing Washington Center
08:29AM 34.4994 -77.4669 198° South 380 437 38,000 180 Climbing Washington Center
08:30AM 34.4006 -77.5075 199° South 380 437 38,000  Level Washington Center
08:32AM 34.2433 -77.5675 198° South 365 420 38,000  Level Jacksonville Center
08:33AM 34.1428 -77.6064 198° South 377 434 38,000  Level Jacksonville Center
08:34AM 34.0400 -77.6425 196° South 377 434 38,000  Level Jacksonville Center
08:35AM 33.9417 -77.6836 199° South 377 434 38,000  Level Jacksonville Center
08:36AM 33.8411 -77.7244 199° South 377 434 38,000  Level Jacksonville Center
08:37AM 33.7383 -77.7631 197° South 377 434 38,000  Level Jacksonville Center
08:38AM 33.6253 -77.8069 198° South 382 440 38,000  Level Jacksonville Center
08:39AM 33.5225 -77.8453 197° South 387 445 38,000  Level Jacksonville Center
08:40AM 33.4197 -77.8833 197° South 387 445 38,000 -60 Level Jacksonville Center
08:41AM 33.3172 -77.9264 199° South 387 445 37,900 -60 Descending Jacksonville Center
08:42AM 33.2122 -77.9647 197° South 392 451 37,900  Level Jacksonville Center
08:43AM 33.1094 -78.0050 198° South 397 457 38,000  Climbing Jacksonville Center
08:44AM 33.0044 -78.0431 197° South 397 457 38,000 -60 Level Jacksonville Center
08:45AM 32.9017 -78.0831 198° South 397 457 37,900  Descending Jacksonville Center
08:46AM 32.7989 -78.1208 197° South 392 451 38,000  Climbing Jacksonville Center
08:47AM 32.6958 -78.1558 196° South 392 451 38,000  Level Jacksonville Center
08:48AM 32.5928 -78.1956 198° South 392 451 38,000  Level Jacksonville Center
08:49AM 32.4900 -78.2381 199° South 397 457 38,000  Level Jacksonville Center
08:50AM 32.3850 -78.2753 197° South 397 457 38,000 -60 Level Jacksonville Center
08:51AM 32.2781 -78.3175 198° South 392 451 37,900 -60 Descending Jacksonville Center
08:52AM 32.1731 -78.3572 198° South 399 459 37,900  Level Jacksonville Center
08:53AM 32.0658 -78.3967 197° South 399 459 38,000  Climbing Jacksonville Center
08:54AM 31.9650 -78.4336 197° South 394 453 38,000  Level Jacksonville Center
08:55AM 31.8558 -78.4756 198° South 400 460 38,000 -60 Level Jacksonville Center
08:56AM 31.7528 -78.5147 198° South 400 460 37,900  Descending Jacksonville Center
08:57AM 31.6456 -78.5539 197° South 395 455 38,000  Climbing Jacksonville Center
08:58AM 31.5403 -78.5903 196° South 395 455 38,000  Level Jacksonville Center
08:59AM 31.4392 -78.6267 197° South 395 455 38,000  Level Jacksonville Center
09:00AM 31.3300 -78.6683 198° South 395 455 38,000 -60 Level Jacksonville Center
09:01AM 31.2250 -78.7094 199° South 400 460 37,900  Descending Jacksonville Center
09:02AM 31.1217 -78.7406 194° South 400 460 38,000  Climbing Jacksonville Center
09:03AM 31.0144 -78.7817 198° South 399 459 38,000  Level Jacksonville Center
09:04AM 30.9072 -78.8228 198° South 399 459 38,000  Level Jacksonville Center
09:05AM 30.8019 -78.8611 197° South 399 459 38,000 -60 Level Jacksonville Center
09:06AM 30.6861 -78.8997 196° South 404 465 37,900 -60 Descending Jacksonville Center
09:07AM 30.6239 -78.9256 200° South 409 471 37,900  Level Miami Center
09:08AM 30.5108 -78.9642 196° South 409 471 38,000  Climbing Miami Center
09:09AM 30.4058 -79.0031 198° South 402 463 38,000  Level Miami Center
09:10AM 30.3011 -79.0467 200° South 402 463 38,000  Level Miami Center
09:11AM 30.1939 -79.0947 201° Southwest 415 478 38,000  Level Miami Center
09:12AM 30.0828 -79.1406 200° South 414 476 38,000  Level Miami Center
09:13AM 29.9733 -79.1981 204° Southwest 414 476 38,000  Level Miami Center
09:14AM 29.8664 -79.2436 200° South 409 471 38,000  Level Miami Center
09:15AM 29.7572 -79.2911 201° Southwest 415 478 38,000  Level Miami Center
09:16AM 29.6542 -79.3439 204° Southwest 415 478 38,000  Level Miami Center
09:17AM 29.5428 -79.3842 197° South 415 478 38,000  Level Miami Center
09:18AM 29.4294 -79.4244 197° South 415 478 38,000  Level Miami Center
09:19AM 29.3203 -79.4719 201° Southwest 415 478 38,000 -2,520 Level Miami Center
09:20AM 29.2128 -79.5192 201° Southwest 415 478 33,000 -3,720 Descending Miami Center
09:21AM 29.1056 -79.5689 202° Southwest 420 483 30,600 2,460 Descending Miami Center
09:22AM 29.0617 -79.6867 247° West 380 437 38,000 -2,220 Climbing Miami Center
09:23AM 29.0239 -79.7947 248° West 366 421 26,200 -7,020 Descending Miami Center
09:24AM 28.9944 -79.9125 254° West 377 434 24,000 -2,160 Descending Miami Center
09:25AM 28.9567 -80.0183 248° West 377 434 21,900 -2,100 Descending Miami Center
09:27AM 28.8667 -80.3000 250° West 351 404 16,300 -2,160 Descending Orlando TRACON
09:28AM 28.8333 -80.4000 249° West 347 399 14,300 -1,200 Descending Orlando TRACON
09:29AM 28.8167 -80.5000 259° West 324 373 13,900 -720 Descending Orlando TRACON
09:30AM 28.8000 -80.6167 261° West 328 377 12,800 -1,080 Descending Orlando TRACON
09:31AM 28.7833 -80.7167 259° West 325 374 11,700 -1,080 Descending Orlando TRACON
09:32AM 28.7500 -80.8000 245° Southwest 294 338 10,700 -900 Descending Orlando TRACON
09:33AM 28.7000 -80.8833 236° Southwest 277 319 10,000 -840 Descending Orlando TRACON
09:34AM 28.6667 -80.9500 240° Southwest 268 308 9,100 -540 Descending Orlando TRACON
09:35AM 28.6333 -81.0167 240° Southwest 258 297 9,000 -60 Descending Orlando TRACON
09:36AM 28.5667 -81.0667 213° Southwest 263 303 9,000 -300 Level Orlando TRACON
09:37AM 28.5167 -81.1167 221° Southwest 244 281 8,400 -1,200 Descending Orlando TRACON
09:38AM 28.4500 -81.1500 204° Southwest 232 267 6,700 -1,560 Descending Orlando TRACON
09:39AM 28.4000 -81.1833 210° Southwest 232 267 5,300 -1,320 Descending Orlando TRACON
09:40AM 28.3500 -81.1833 180° South 214 246 4,200 -1,440 Descending Orlando TRACON
09:41AM 28.3000 -81.2167 210° Southwest 207 238 2,700 -1,560 Descending Orlando TRACON